sensor_id;sensor_type;location;lat;lon;timestamp;pressure;altitude;pressure_sealevel;temperature;humidity
78121;BME280;67585;44.802;10.332;2023-03-23T00:00:45;100905.63;;;16.04;40.27
78121;BME280;67585;44.802;10.332;2023-03-23T00:03:10;100885.94;;;15.93;39.95
78121;BME280;67585;44.802;10.332;2023-03-23T00:05:38;100890.16;;;16.05;39.82
78121;BME280;67585;44.802;10.332;2023-03-23T00:08:06;100901.03;;;16.05;40.36
78121;BME280;67585;44.802;10.332;2023-03-23T00:10:34;100886.91;;;15.78;40.49
78121;BME280;67585;44.802;10.332;2023-03-23T00:13:00;100894.56;;;16.00;39.78
78121;BME280;67585;44.802;10.332;2023-03-23T00:15:27;100893.69;;;16.05;39.96
78121;BME280;67585;44.802;10.332;2023-03-23T00:17:55;100883.56;;;15.87;40.39
78121;BME280;67585;44.802;10.332;2023-03-23T00:20:28;100900.63;;;15.92;40.54
78121;BME280;67585;44.802;10.332;2023-03-23T00:22:55;100896.66;;;15.79;40.54
78121;BME280;67585;44.802;10.332;2023-03-23T00:25:25;100878.97;;;15.82;39.78
78121;BME280;67585;44.802;10.332;2023-03-23T00:27:50;100881.53;;;15.73;40.22
78121;BME280;67585;44.802;10.332;2023-03-23T00:30:15;100894.53;;;15.76;41.02
78121;BME280;67585;44.802;10.332;2023-03-23T00:32:44;100854.78;;;15.56;40.72
78121;BME280;67585;44.802;10.332;2023-03-23T00:35:09;100896.84;;;15.88;40.08
78121;BME280;67585;44.802;10.332;2023-03-23T00:37:35;100901.88;;;15.76;41.05
78121;BME280;67585;44.802;10.332;2023-03-23T00:40:02;100897.88;;;15.63;41.37
78121;BME280;67585;44.802;10.332;2023-03-23T00:42:31;100886.78;;;15.59;40.55
78121;BME280;67585;44.802;10.332;2023-03-23T00:45:02;100854.78;;;15.27;40.78
78121;BME280;67585;44.802;10.332;2023-03-23T00:47:27;100894.06;;;15.35;40.93
78121;BME280;67585;44.802;10.332;2023-03-23T00:49:53;100883.97;;;15.41;41.62
78121;BME280;67585;44.802;10.332;2023-03-23T00:52:21;100876.34;;;15.43;39.94
78121;BME280;67585;44.802;10.332;2023-03-23T00:54:46;100873.69;;;15.37;39.79
78121;BME280;67585;44.802;10.332;2023-03-23T00:57:12;100859.34;;;15.61;39.71
78121;BME280;67585;44.802;10.332;2023-03-23T00:59:37;100828.38;;;15.33;39.33
78121;BME280;67585;44.802;10.332;2023-03-23T01:02:03;100867.06;;;15.49;39.67
78121;BME280;67585;44.802;10.332;2023-03-23T01:04:28;100869.16;;;15.57;37.94
78121;BME280;67585;44.802;10.332;2023-03-23T01:06:57;100865.75;;;15.75;38.09
78121;BME280;67585;44.802;10.332;2023-03-23T01:09:22;100868.50;;;15.70;37.50
78121;BME280;67585;44.802;10.332;2023-03-23T01:11:49;100860.63;;;15.69;38.76
78121;BME280;67585;44.802;10.332;2023-03-23T01:14:18;100861.72;;;15.73;38.07
78121;BME280;67585;44.802;10.332;2023-03-23T01:16:43;100853.25;;;15.74;37.62
78121;BME280;67585;44.802;10.332;2023-03-23T01:19:09;100850.69;;;15.88;38.07
78121;BME280;67585;44.802;10.332;2023-03-23T01:21:35;100804.78;;;15.57;37.35
78121;BME280;67585;44.802;10.332;2023-03-23T01:24:01;100862.28;;;15.94;38.22
78121;BME280;67585;44.802;10.332;2023-03-23T01:26:27;100851.28;;;15.80;37.71
78121;BME280;67585;44.802;10.332;2023-03-23T01:28:54;100849.75;;;15.74;37.69
78121;BME280;67585;44.802;10.332;2023-03-23T01:31:23;100853.88;;;15.66;36.31
78121;BME280;67585;44.802;10.332;2023-03-23T01:33:50;100850.34;;;15.66;36.09
78121;BME280;67585;44.802;10.332;2023-03-23T01:36:21;100814.00;;;15.32;37.05
78121;BME280;67585;44.802;10.332;2023-03-23T01:38:49;100856.72;;;15.51;36.42
78121;BME280;67585;44.802;10.332;2023-03-23T01:41:16;100851.06;;;15.47;36.52
78121;BME280;67585;44.802;10.332;2023-03-23T01:44:05;100845.41;;;15.68;37.22
78121;BME280;67585;44.802;10.332;2023-03-23T01:46:34;100855.19;;;15.39;37.04
78121;BME280;67585;44.802;10.332;2023-03-23T01:49:07;100846.25;;;15.39;38.03
78121;BME280;67585;44.802;10.332;2023-03-23T01:51:37;100850.94;;;15.28;37.32
78121;BME280;67585;44.802;10.332;2023-03-23T01:54:07;100852.69;;;15.14;38.24
78121;BME280;67585;44.802;10.332;2023-03-23T01:56:41;100846.16;;;15.20;38.09
78121;BME280;67585;44.802;10.332;2023-03-23T01:59:11;100861.44;;;15.40;38.40
78121;BME280;67585;44.802;10.332;2023-03-23T02:01:37;100858.88;;;15.25;38.23
78121;BME280;67585;44.802;10.332;2023-03-23T02:04:05;100860.13;;;15.03;38.91
78121;BME280;67585;44.802;10.332;2023-03-23T02:06:31;100859.81;;;15.05;39.15
78121;BME280;67585;44.802;10.332;2023-03-23T02:08:57;100842.53;;;14.95;38.87
78121;BME280;67585;44.802;10.332;2023-03-23T02:11:22;100859.81;;;15.05;38.59
78121;BME280;67585;44.802;10.332;2023-03-23T02:13:49;100868.03;;;14.94;39.03
78121;BME280;67585;44.802;10.332;2023-03-23T02:16:39;100863.13;;;14.57;39.62
78121;BME280;67585;44.802;10.332;2023-03-23T02:34:00;100854.19;;;14.46;41.42
78121;BME280;67585;44.802;10.332;2023-03-23T02:41:28;100844.72;;;14.54;41.08
78121;BME280;67585;44.802;10.332;2023-03-23T02:43:56;100842.66;;;14.20;41.37
78121;BME280;67585;44.802;10.332;2023-03-23T02:46:23;100838.91;;;14.11;41.71
78121;BME280;67585;44.802;10.332;2023-03-23T02:48:50;100841.81;;;14.30;41.46
78121;BME280;67585;44.802;10.332;2023-03-23T02:51:18;100843.03;;;14.53;40.94
78121;BME280;67585;44.802;10.332;2023-03-23T02:53:46;100837.44;;;14.34;40.43
78121;BME280;67585;44.802;10.332;2023-03-23T02:56:13;100828.75;;;14.42;41.51
78121;BME280;67585;44.802;10.332;2023-03-23T02:58:39;100819.00;;;14.36;41.05
78121;BME280;67585;44.802;10.332;2023-03-23T03:01:45;100832.63;;;14.26;40.14
78121;BME280;67585;44.802;10.332;2023-03-23T03:04:12;100821.34;;;14.53;40.05
78121;BME280;67585;44.802;10.332;2023-03-23T03:12:03;100834.69;;;14.39;40.81
78121;BME280;67585;44.802;10.332;2023-03-23T03:14:41;100799.28;;;14.25;39.58
78121;BME280;67585;44.802;10.332;2023-03-23T03:17:19;100814.91;;;14.44;39.67
78121;BME280;67585;44.802;10.332;2023-03-23T03:19:50;100827.06;;;14.57;39.41
78121;BME280;67585;44.802;10.332;2023-03-23T03:22:19;100831.47;;;14.42;40.19
78121;BME280;67585;44.802;10.332;2023-03-23T03:24:46;100832.31;;;14.32;39.97
78121;BME280;67585;44.802;10.332;2023-03-23T03:27:17;100840.91;;;14.50;39.37
78121;BME280;67585;44.802;10.332;2023-03-23T03:29:45;100819.00;;;14.36;39.78
78121;BME280;67585;44.802;10.332;2023-03-23T03:32:18;100826.38;;;14.30;39.76
78121;BME280;67585;44.802;10.332;2023-03-23T03:34:46;100839.78;;;14.61;39.54
78121;BME280;67585;44.802;10.332;2023-03-23T03:37:13;100827.69;;;14.38;39.50
78121;BME280;67585;44.802;10.332;2023-03-23T03:39:39;100834.19;;;14.37;39.48
78121;BME280;67585;44.802;10.332;2023-03-23T03:42:05;100833.97;;;14.23;40.04
78121;BME280;67585;44.802;10.332;2023-03-23T03:44:32;100847.47;;;14.33;40.13
78121;BME280;67585;44.802;10.332;2023-03-23T03:46:57;100842.59;;;14.36;40.59
78121;BME280;67585;44.802;10.332;2023-03-23T03:49:23;100845.09;;;14.22;39.60
78121;BME280;67585;44.802;10.332;2023-03-23T03:51:48;100839.09;;;14.30;41.26
78121;BME280;67585;44.802;10.332;2023-03-23T03:54:14;100830.75;;;14.16;40.36
78121;BME280;67585;44.802;10.332;2023-03-23T03:56:40;100855.88;;;14.32;40.73
78121;BME280;67585;44.802;10.332;2023-03-23T03:59:07;100851.81;;;14.29;41.21
78121;BME280;67585;44.802;10.332;2023-03-23T04:01:37;100840.81;;;14.00;41.47
78121;BME280;67585;44.802;10.332;2023-03-23T04:04:04;100830.00;;;13.95;40.89
78121;BME280;67585;44.802;10.332;2023-03-23T04:06:32;100852.16;;;14.18;40.89
78121;BME280;67585;44.802;10.332;2023-03-23T04:08:58;100846.19;;;14.21;41.90
78121;BME280;67585;44.802;10.332;2023-03-23T04:11:24;100843.72;;;14.24;41.22
78121;BME280;67585;44.802;10.332;2023-03-23T04:13:51;100854.25;;;14.36;41.27
78121;BME280;67585;44.802;10.332;2023-03-23T04:16:16;100857.50;;;14.33;42.22
78121;BME280;67585;44.802;10.332;2023-03-23T04:18:42;100853.25;;;14.17;42.53
78121;BME280;67585;44.802;10.332;2023-03-23T04:21:08;100856.16;;;14.36;41.68
78121;BME280;67585;44.802;10.332;2023-03-23T04:23:34;100864.84;;;14.32;42.37
78121;BME280;67585;44.802;10.332;2023-03-23T04:26:00;100868.44;;;14.18;42.57
78121;BME280;67585;44.802;10.332;2023-03-23T04:28:28;100866.53;;;14.13;42.77
78121;BME280;67585;44.802;10.332;2023-03-23T04:30:55;100871.16;;;14.07;42.87
78121;BME280;67585;44.802;10.332;2023-03-23T04:33:22;100874.94;;;14.11;43.00
78121;BME280;67585;44.802;10.332;2023-03-23T04:35:52;100861.63;;;14.20;42.33
78121;BME280;67585;44.802;10.332;2023-03-23T04:38:20;100870.00;;;14.24;42.42
78121;BME280;67585;44.802;10.332;2023-03-23T04:40:45;100868.94;;;14.25;42.57
78121;BME280;67585;44.802;10.332;2023-03-23T04:43:11;100873.84;;;14.13;43.20
78121;BME280;67585;44.802;10.332;2023-03-23T04:45:38;100859.78;;;14.10;43.12
78121;BME280;67585;44.802;10.332;2023-03-23T04:48:07;100877.38;;;14.03;43.49
78121;BME280;67585;44.802;10.332;2023-03-23T04:50:33;100855.78;;;13.87;43.06
78121;BME280;67585;44.802;10.332;2023-03-23T04:53:00;100878.19;;;14.14;44.04
78121;BME280;67585;44.802;10.332;2023-03-23T04:55:34;100866.25;;;14.09;44.06
78121;BME280;67585;44.802;10.332;2023-03-23T04:58:02;100893.66;;;14.08;44.45
78121;BME280;67585;44.802;10.332;2023-03-23T05:00:28;100875.75;;;14.12;44.18
78121;BME280;67585;44.802;10.332;2023-03-23T05:02:53;100864.06;;;14.22;43.65
78121;BME280;67585;44.802;10.332;2023-03-23T05:05:21;100889.50;;;14.31;44.38
78121;BME280;67585;44.802;10.332;2023-03-23T05:07:48;100892.72;;;14.38;44.37
78121;BME280;67585;44.802;10.332;2023-03-23T05:10:14;100895.72;;;14.31;43.75
78121;BME280;67585;44.802;10.332;2023-03-23T05:12:40;100894.38;;;14.29;43.93
78121;BME280;67585;44.802;10.332;2023-03-23T05:15:07;100894.69;;;14.12;44.38
78121;BME280;67585;44.802;10.332;2023-03-23T05:17:33;100892.50;;;14.19;44.07
78121;BME280;67585;44.802;10.332;2023-03-23T05:19:59;100904.69;;;14.22;44.40
78121;BME280;67585;44.802;10.332;2023-03-23T05:22:28;100883.59;;;14.14;43.87
78121;BME280;67585;44.802;10.332;2023-03-23T05:24:53;100894.69;;;14.17;43.53
78121;BME280;67585;44.802;10.332;2023-03-23T05:27:19;100878.75;;;14.05;44.00
78121;BME280;67585;44.802;10.332;2023-03-23T05:29:46;100900.09;;;14.17;44.31
78121;BME280;67585;44.802;10.332;2023-03-23T05:32:15;100864.44;;;13.89;44.07
78121;BME280;67585;44.802;10.332;2023-03-23T05:34:41;100876.88;;;13.90;43.83
78121;BME280;67585;44.802;10.332;2023-03-23T05:37:08;100898.50;;;14.16;43.76
78121;BME280;67585;44.802;10.332;2023-03-23T05:39:35;100900.41;;;14.16;44.04
78121;BME280;67585;44.802;10.332;2023-03-23T05:42:01;100913.34;;;14.29;43.99
78121;BME280;67585;44.802;10.332;2023-03-23T05:44:26;100913.06;;;14.36;44.15
78121;BME280;67585;44.802;10.332;2023-03-23T05:46:52;100896.63;;;14.06;43.81
78121;BME280;67585;44.802;10.332;2023-03-23T05:49:17;100925.34;;;14.02;45.01
78121;BME280;67585;44.802;10.332;2023-03-23T05:51:44;100923.97;;;14.10;44.44
78121;BME280;67585;44.802;10.332;2023-03-23T05:54:11;100932.09;;;14.05;44.56
78121;BME280;67585;44.802;10.332;2023-03-23T05:56:36;100931.78;;;14.22;43.82
78121;BME280;67585;44.802;10.332;2023-03-23T05:59:02;100939.09;;;14.26;44.32
78121;BME280;67585;44.802;10.332;2023-03-23T06:01:28;100932.31;;;14.24;44.49
78121;BME280;67585;44.802;10.332;2023-03-23T06:03:54;100943.13;;;14.34;44.16
78121;BME280;67585;44.802;10.332;2023-03-23T06:06:30;100950.53;;;14.08;44.38
78121;BME280;67585;44.802;10.332;2023-03-23T06:08:56;100943.44;;;14.17;44.40
78121;BME280;67585;44.802;10.332;2023-03-23T06:11:23;100938.34;;;14.05;44.96
78121;BME280;67585;44.802;10.332;2023-03-23T06:13:50;100942.59;;;14.27;43.66
78121;BME280;67585;44.802;10.332;2023-03-23T06:16:15;100916.41;;;13.97;44.39
78121;BME280;67585;44.802;10.332;2023-03-23T06:18:41;100958.63;;;14.18;44.98
78121;BME280;67585;44.802;10.332;2023-03-23T06:21:07;100962.13;;;14.24;44.38
78121;BME280;67585;44.802;10.332;2023-03-23T06:23:34;100958.88;;;14.37;44.92
78121;BME280;67585;44.802;10.332;2023-03-23T06:26:02;100961.06;;;14.30;45.07
78121;BME280;67585;44.802;10.332;2023-03-23T06:28:29;100961.03;;;14.35;44.33
78121;BME280;67585;44.802;10.332;2023-03-23T06:30:54;100959.66;;;14.38;44.15
78121;BME280;67585;44.802;10.332;2023-03-23T06:33:20;100966.41;;;14.56;43.56
78121;BME280;67585;44.802;10.332;2023-03-23T06:35:45;100972.41;;;14.27;45.20
78121;BME280;67585;44.802;10.332;2023-03-23T06:38:11;100945.59;;;14.30;44.82
78121;BME280;67585;44.802;10.332;2023-03-23T06:40:37;100972.69;;;14.36;44.97
78121;BME280;67585;44.802;10.332;2023-03-23T06:43:03;100965.03;;;14.53;44.12
78121;BME280;67585;44.802;10.332;2023-03-23T06:45:30;100960.16;;;14.60;44.23
78121;BME280;67585;44.802;10.332;2023-03-23T06:47:56;100970.69;;;14.72;43.86
78121;BME280;67585;44.802;10.332;2023-03-23T06:50:21;100967.84;;;15.03;43.86
78121;BME280;67585;44.802;10.332;2023-03-23T06:52:48;100981.94;;;16.13;43.71
78121;BME280;67585;44.802;10.332;2023-03-23T06:55:14;100988.00;;;16.05;42.31
78121;BME280;67585;44.802;10.332;2023-03-23T06:57:41;100982.34;;;16.73;40.92
78121;BME280;67585;44.802;10.332;2023-03-23T07:00:08;100950.97;;;15.45;41.91
78121;BME280;67585;44.802;10.332;2023-03-23T07:02:36;100985.56;;;15.69;41.60
78121;BME280;67585;44.802;10.332;2023-03-23T07:05:02;100973.72;;;15.89;41.71
78121;BME280;67585;44.802;10.332;2023-03-23T07:07:29;100980.94;;;15.69;41.55
78121;BME280;67585;44.802;10.332;2023-03-23T07:09:55;100976.72;;;15.53;41.53
78121;BME280;67585;44.802;10.332;2023-03-23T07:12:21;100969.94;;;15.50;42.49
78121;BME280;67585;44.802;10.332;2023-03-23T07:14:47;100980.81;;;15.50;42.09
78121;BME280;67585;44.802;10.332;2023-03-23T07:17:12;100966.28;;;15.31;43.10
78121;BME280;67585;44.802;10.332;2023-03-23T07:19:38;100974.38;;;15.36;43.28
78121;BME280;67585;44.802;10.332;2023-03-23T07:22:06;100953.03;;;15.24;43.17
78121;BME280;67585;44.802;10.332;2023-03-23T07:24:32;100968.72;;;15.67;41.83
78121;BME280;67585;44.802;10.332;2023-03-23T07:26:58;100953.16;;;15.43;42.20
78121;BME280;67585;44.802;10.332;2023-03-23T07:29:23;100965.63;;;15.49;42.97
78121;BME280;67585;44.802;10.332;2023-03-23T07:31:49;100953.59;;;15.95;41.99
78121;BME280;67585;44.802;10.332;2023-03-23T07:34:14;100968.13;;;16.33;41.52
78121;BME280;67585;44.802;10.332;2023-03-23T07:36:40;100967.66;;;16.02;41.52
78121;BME280;67585;44.802;10.332;2023-03-23T07:39:06;100950.00;;;16.23;40.98
78121;BME280;67585;44.802;10.332;2023-03-23T07:41:32;100969.34;;;16.22;41.62
78121;BME280;67585;44.802;10.332;2023-03-23T07:43:57;100971.28;;;16.16;41.46
78121;BME280;67585;44.802;10.332;2023-03-23T07:46:23;100964.00;;;16.12;40.94
78121;BME280;67585;44.802;10.332;2023-03-23T07:48:49;100967.59;;;16.07;41.82
78121;BME280;67585;44.802;10.332;2023-03-23T07:51:15;100973.25;;;16.11;42.00
78121;BME280;67585;44.802;10.332;2023-03-23T07:53:44;100945.06;;;16.01;42.34
78121;BME280;67585;44.802;10.332;2023-03-23T07:56:12;100980.50;;;16.20;41.41
78121;BME280;67585;44.802;10.332;2023-03-23T07:58:42;100961.13;;;16.51;41.74
78121;BME280;67585;44.802;10.332;2023-03-23T08:01:09;100961.28;;;16.84;40.26
78121;BME280;67585;44.802;10.332;2023-03-23T08:03:35;100953.06;;;16.65;40.44
78121;BME280;67585;44.802;10.332;2023-03-23T08:06:00;100967.59;;;16.79;39.94
78121;BME280;67585;44.802;10.332;2023-03-23T08:08:26;100966.28;;;16.96;40.77
78121;BME280;67585;44.802;10.332;2023-03-23T08:10:51;100960.72;;;16.87;41.50
78121;BME280;67585;44.802;10.332;2023-03-23T08:13:17;100965.41;;;17.00;41.48
78121;BME280;67585;44.802;10.332;2023-03-23T08:15:43;100939.75;;;16.87;40.92
78121;BME280;67585;44.802;10.332;2023-03-23T08:18:10;100973.81;;;17.23;40.58
78121;BME280;67585;44.802;10.332;2023-03-23T08:20:35;100959.56;;;17.97;38.86
78121;BME280;67585;44.802;10.332;2023-03-23T08:23:02;100976.34;;;18.18;37.93
78121;BME280;67585;44.802;10.332;2023-03-23T08:25:28;100976.47;;;18.26;37.57
78121;BME280;67585;44.802;10.332;2023-03-23T08:27:56;100968.47;;;18.30;37.87
78121;BME280;67585;44.802;10.332;2023-03-23T08:30:22;100979.38;;;18.30;37.76
78121;BME280;67585;44.802;10.332;2023-03-23T08:32:48;100968.81;;;18.28;37.80
78121;BME280;67585;44.802;10.332;2023-03-23T08:35:15;100992.44;;;18.33;38.23
78121;BME280;67585;44.802;10.332;2023-03-23T08:37:41;100965.59;;;17.93;39.04
78121;BME280;67585;44.802;10.332;2023-03-23T08:40:08;100983.44;;;18.46;38.03
78121;BME280;67585;44.802;10.332;2023-03-23T08:42:38;100990.09;;;18.26;39.03
78121;BME280;67585;44.802;10.332;2023-03-23T08:45:06;100986.59;;;17.93;39.74
78121;BME280;67585;44.802;10.332;2023-03-23T08:47:33;100974.63;;;18.08;39.57
78121;BME280;67585;44.802;10.332;2023-03-23T08:49:58;100990.28;;;18.71;38.61
78121;BME280;67585;44.802;10.332;2023-03-23T08:52:25;100972.53;;;18.60;38.36
78121;BME280;67585;44.802;10.332;2023-03-23T08:54:50;100997.00;;;18.38;39.83
78121;BME280;67585;44.802;10.332;2023-03-23T08:57:15;100991.22;;;18.81;38.59
78121;BME280;67585;44.802;10.332;2023-03-23T08:59:41;100981.03;;;18.45;39.62
78121;BME280;67585;44.802;10.332;2023-03-23T09:02:11;101002.34;;;18.56;39.23
78121;BME280;67585;44.802;10.332;2023-03-23T09:04:39;100987.09;;;18.83;39.49
78121;BME280;67585;44.802;10.332;2023-03-23T09:07:08;101002.63;;;19.92;36.71
78121;BME280;67585;44.802;10.332;2023-03-23T09:09:34;100988.44;;;19.81;37.07
78121;BME280;67585;44.802;10.332;2023-03-23T09:12:00;101007.47;;;19.95;37.63
78121;BME280;67585;44.802;10.332;2023-03-23T09:14:26;100962.31;;;19.75;37.35
78121;BME280;67585;44.802;10.332;2023-03-23T09:16:52;101003.63;;;19.73;38.07
78121;BME280;67585;44.802;10.332;2023-03-23T09:19:17;100997.28;;;19.64;38.30
78121;BME280;67585;44.802;10.332;2023-03-23T09:21:43;100982.34;;;19.25;38.41
78121;BME280;67585;44.802;10.332;2023-03-23T09:24:10;101002.31;;;19.12;38.94
78121;BME280;67585;44.802;10.332;2023-03-23T09:26:36;100967.84;;;19.02;38.92
78121;BME280;67585;44.802;10.332;2023-03-23T09:29:01;101000.25;;;19.54;37.46
78121;BME280;67585;44.802;10.332;2023-03-23T09:31:27;100978.88;;;19.33;37.71
78121;BME280;67585;44.802;10.332;2023-03-23T09:33:54;101001.66;;;19.29;38.17
78121;BME280;67585;44.802;10.332;2023-03-23T09:36:22;101002.78;;;19.87;36.30
78121;BME280;67585;44.802;10.332;2023-03-23T09:38:48;100999.31;;;19.58;36.82
78121;BME280;67585;44.802;10.332;2023-03-23T09:46:54;101012.06;;;20.39;36.25
78121;BME280;67585;44.802;10.332;2023-03-23T09:49:33;100995.22;;;20.55;35.12
78121;BME280;67585;44.802;10.332;2023-03-23T09:52:05;100990.47;;;19.75;36.68
78121;BME280;67585;44.802;10.332;2023-03-23T09:54:40;101004.84;;;19.81;36.76
78121;BME280;67585;44.802;10.332;2023-03-23T10:05:35;101010.91;;;20.00;35.79
78121;BME280;67585;44.802;10.332;2023-03-23T10:08:10;101005.97;;;19.43;36.54
78121;BME280;67585;44.802;10.332;2023-03-23T10:11:04;101005.69;;;20.21;34.88
78121;BME280;67585;44.802;10.332;2023-03-23T10:13:47;101005.38;;;19.69;37.20
78121;BME280;67585;44.802;10.332;2023-03-23T10:16:22;100995.50;;;19.82;37.19
78121;BME280;67585;44.802;10.332;2023-03-23T10:18:54;101012.31;;;20.29;36.41
78121;BME280;67585;44.802;10.332;2023-03-23T10:21:24;101006.66;;;19.94;35.95
78121;BME280;67585;44.802;10.332;2023-03-23T10:24:00;101006.16;;;20.55;35.92
78121;BME280;67585;44.802;10.332;2023-03-23T10:31:37;100992.31;;;21.26;34.22
78121;BME280;67585;44.802;10.332;2023-03-23T10:34:10;100997.78;;;21.08;34.32
78121;BME280;67585;44.802;10.332;2023-03-23T10:36:48;100972.16;;;21.48;33.55
78121;BME280;67585;44.802;10.332;2023-03-23T10:39:19;101000.69;;;21.38;33.03
78121;BME280;67585;44.802;10.332;2023-03-23T10:41:46;100979.06;;;21.80;32.65
78121;BME280;67585;44.802;10.332;2023-03-23T10:44:19;100983.97;;;21.40;33.59
78121;BME280;67585;44.802;10.332;2023-03-23T10:46:53;100967.50;;;21.66;31.88
78121;BME280;67585;44.802;10.332;2023-03-23T10:49:25;100979.75;;;21.68;32.07
78121;BME280;67585;44.802;10.332;2023-03-23T10:54:37;100985.50;;;22.40;31.45
78121;BME280;67585;44.802;10.332;2023-03-23T10:57:46;100960.06;;;22.13;31.20
78121;BME280;67585;44.802;10.332;2023-03-23T11:00:18;100963.25;;;21.77;31.83
78121;BME280;67585;44.802;10.332;2023-03-23T11:02:46;100981.00;;;20.92;32.94
78121;BME280;67585;44.802;10.332;2023-03-23T11:05:25;100970.06;;;21.36;32.60
78121;BME280;67585;44.802;10.332;2023-03-23T11:07:54;100967.44;;;21.83;31.72
78121;BME280;67585;44.802;10.332;2023-03-23T11:10:38;100977.97;;;21.38;31.48
78121;BME280;67585;44.802;10.332;2023-03-23T11:13:04;100963.25;;;21.77;31.36
78121;BME280;67585;44.802;10.332;2023-03-23T11:15:37;100958.91;;;22.32;29.59
78121;BME280;67585;44.802;10.332;2023-03-23T11:18:41;100959.59;;;22.20;30.34
78121;BME280;67585;44.802;10.332;2023-03-23T11:21:12;100951.00;;;21.74;31.90
78121;BME280;67585;44.802;10.332;2023-03-23T11:23:40;100948.63;;;21.12;32.37
78121;BME280;67585;44.802;10.332;2023-03-23T11:26:33;100946.00;;;20.63;32.29
78121;BME280;67585;44.802;10.332;2023-03-23T11:29:15;100940.06;;;21.57;31.82
78121;BME280;67585;44.802;10.332;2023-03-23T11:31:47;100946.03;;;21.16;32.68
78121;BME280;67585;44.802;10.332;2023-03-23T11:34:20;100918.13;;;20.61;33.77
78121;BME280;67585;44.802;10.332;2023-03-23T11:37:08;100945.03;;;20.68;32.54
78121;BME280;67585;44.802;10.332;2023-03-23T11:39:48;100945.34;;;20.18;33.66
78121;BME280;67585;44.802;10.332;2023-03-23T11:42:23;100931.22;;;20.24;32.49
78121;BME280;67585;44.802;10.332;2023-03-23T11:44:53;100943.34;;;20.49;32.31
78121;BME280;67585;44.802;10.332;2023-03-23T11:47:42;100948.91;;;20.84;32.77
78121;BME280;67585;44.802;10.332;2023-03-23T11:50:18;100941.69;;;21.41;31.88
78121;BME280;67585;44.802;10.332;2023-03-23T11:56:06;100940.72;;;21.37;32.33
78121;BME280;67585;44.802;10.332;2023-03-23T11:58:22;100937.31;;;21.31;32.34
78121;BME280;67585;44.802;10.332;2023-03-23T12:00:56;100940.91;;;22.05;31.65
78121;BME280;67585;44.802;10.332;2023-03-23T12:06:36;100938.91;;;21.75;31.49
78121;BME280;67585;44.802;10.332;2023-03-23T12:09:18;100944.44;;;21.58;32.09
78121;BME280;67585;44.802;10.332;2023-03-23T12:15:14;100927.25;;;22.34;30.79
78121;BME280;67585;44.802;10.332;2023-03-23T12:17:50;100930.84;;;22.17;30.43
78121;BME280;67585;44.802;10.332;2023-03-23T12:20:29;100921.22;;;22.03;30.33
78121;BME280;67585;44.802;10.332;2023-03-23T12:33:52;100896.56;;;21.29;32.09
78121;BME280;67585;44.802;10.332;2023-03-23T12:43:59;100881.53;;;21.35;31.66
78121;BME280;67585;44.802;10.332;2023-03-23T12:49:22;100849.16;;;21.46;30.79
78121;BME280;67585;44.802;10.332;2023-03-23T12:54:49;100851.78;;;22.11;29.90
78121;BME280;67585;44.802;10.332;2023-03-23T13:00:05;100863.34;;;21.87;30.93
78121;BME280;67585;44.802;10.332;2023-03-23T13:02:51;100864.94;;;21.58;31.47
78121;BME280;67585;44.802;10.332;2023-03-23T13:10:29;100850.50;;;20.79;32.45
78121;BME280;67585;44.802;10.332;2023-03-23T13:12:57;100838.84;;;20.39;32.28
78121;BME280;67585;44.802;10.332;2023-03-23T13:15:40;100839.97;;;20.38;32.33
78121;BME280;67585;44.802;10.332;2023-03-23T13:18:40;100847.63;;;20.76;32.03
78121;BME280;67585;44.802;10.332;2023-03-23T13:24:27;100837.97;;;20.61;32.34
78121;BME280;67585;44.802;10.332;2023-03-23T13:26:53;100821.34;;;20.57;31.95
78121;BME280;67585;44.802;10.332;2023-03-23T13:29:23;100830.38;;;20.75;32.01
78121;BME280;67585;44.802;10.332;2023-03-23T13:31:51;100805.41;;;20.59;31.91
78121;BME280;67585;44.802;10.332;2023-03-23T13:37:05;100820.38;;;20.79;33.07
78121;BME280;67585;44.802;10.332;2023-03-23T13:39:38;100824.91;;;20.84;32.11
78121;BME280;67585;44.802;10.332;2023-03-23T13:44:55;100805.06;;;20.96;32.14
78121;BME280;67585;44.802;10.332;2023-03-23T13:49:55;100808.22;;;21.32;31.40
78121;BME280;67585;44.802;10.332;2023-03-23T14:08:38;100770.34;;;21.34;31.47
78121;BME280;67585;44.802;10.332;2023-03-23T14:11:24;100768.59;;;21.21;31.46
78121;BME280;67585;44.802;10.332;2023-03-23T14:16:24;100761.78;;;20.80;32.39
78121;BME280;67585;44.802;10.332;2023-03-23T14:19:00;100753.84;;;20.96;32.30
78121;BME280;67585;44.802;10.332;2023-03-23T14:21:35;100765.09;;;21.03;32.67
78121;BME280;67585;44.802;10.332;2023-03-23T14:24:15;100763.72;;;21.44;30.77
78121;BME280;67585;44.802;10.332;2023-03-23T14:26:41;100755.81;;;21.43;31.01
78121;BME280;67585;44.802;10.332;2023-03-23T14:29:10;100755.31;;;21.49;31.48
78121;BME280;67585;44.802;10.332;2023-03-23T14:31:36;100759.50;;;21.38;31.45
78121;BME280;67585;44.802;10.332;2023-03-23T14:34:13;100739.53;;;21.38;32.40
78121;BME280;67585;44.802;10.332;2023-03-23T14:36:39;100748.47;;;21.17;32.38
78121;BME280;67585;44.802;10.332;2023-03-23T14:41:51;100756.03;;;21.20;32.25
78121;BME280;67585;44.802;10.332;2023-03-23T14:44:22;100750.38;;;21.25;32.12
78121;BME280;67585;44.802;10.332;2023-03-23T14:46:48;100743.28;;;21.24;32.76
78121;BME280;67585;44.802;10.332;2023-03-23T14:49:17;100750.19;;;21.39;32.22
78121;BME280;67585;44.802;10.332;2023-03-23T14:51:49;100737.94;;;21.37;32.73